Latest Weather Observations for Horn Island

IDQ60801

Issued at 8:02 am EST Wednesday 2 September 2015 (issued every 30 minutes, with the page automatically refreshed every 10 minutes)

About weather observations | Map of weather stations | Latest weather observations for QLD | Other Formats
Station Details ID: 027058 Name: HORN ISLAND Lat: -10.58 Lon: 142.29 Height: 4.0 m
Data from the previous 72 hours. | See also: Recent months at Horn Island
Date/Time
EST
Temp
°C
App
Temp
°C
Dew
Point
Rel
Hum
%
Delta-T
°C
Wind Press
QNH
hPa
Press
MSL
hPa
Rain
since 9 am
mm
Dir
 
Spd
km/h
Gust
km/h
Spd
kts
Gust
kts
02/08:00am 25.9 26.3 20.7 73 3.4 ESE 19 26 10 14 1016.1 - 0.0
02/07:30am 25.4 26.7 20.9 76 3.0 ESE 15 22 8 12 1015.9 - 0.0
02/07:00am 24.6 25.3 20.5 78 2.7 ESE 17 20 9 11 1015.5 - 0.0
02/06:30am 24.4 25.6 20.7 80 2.4 E 15 20 8 11 1014.9 - 0.0
02/06:00am 24.4 25.1 20.5 79 2.5 ESE 17 26 9 14 1014.5 1014.5 0.0
02/05:30am 24.3 25.5 20.6 80 2.4 ESE 15 20 8 11 1014.0 - 0.0
02/05:00am 24.3 25.6 20.8 81 2.3 E 15 19 8 10 1013.8 - 0.0
02/04:30am 24.3 25.5 20.6 80 2.4 E 15 22 8 12 1013.6 - 0.0
02/04:00am 24.4 25.2 20.7 80 2.4 E 17 22 9 12 1013.8 - 0.0
02/03:30am 24.5 25.4 20.8 80 2.4 E 17 24 9 13 1013.9 - 0.0
02/03:00am 24.4 24.5 20.3 78 2.7 E 20 26 11 14 1013.9 1013.9 0.0
02/02:30am 24.4 25.2 20.7 80 2.4 E 17 24 9 13 1013.9 - 0.0
02/02:00am 24.4 24.7 20.5 79 2.5 E 19 26 10 14 1014.0 - 0.0
02/01:30am 24.6 24.4 20.5 78 2.7 E 22 30 12 16 1014.0 - 0.0
02/01:00am 24.7 25.3 21.0 80 2.4 E 19 26 10 14 1014.3 - 0.0
02/12:30am 24.8 25.1 20.7 78 2.7 E 20 30 11 16 1014.5 - 0.0
02/12:00am 24.7 24.3 20.2 76 2.9 E 22 30 12 16 1014.7 1014.7 0.0
 
Date/Time
EST
Temp
°C
App
Temp
°C
Dew
Point
Rel
Hum
%
Delta-T
°C
Wind Press
QNH
hPa
Press
MSL
hPa
Rain
since 9 am
mm
Dir
 
Spd
km/h
Gust
km/h
Spd
kts
Gust
kts
01/11:30pm 24.9 24.5 20.2 75 3.1 E 22 32 12 17 1014.8 - 0.0
01/11:00pm 24.8 24.2 20.5 77 2.8 E 24 32 13 17 1014.7 - 0.0
01/10:30pm 24.8 24.2 20.5 77 2.8 E 24 32 13 17 1014.6 - 0.0
01/10:00pm 24.9 25.1 20.6 77 2.8 E 20 30 11 16 1014.5 - 0.0
01/09:30pm 24.8 24.8 20.1 75 3.0 E 20 32 11 17 1014.4 - 0.0
01/09:00pm 24.8 24.6 19.8 74 3.2 E 20 30 11 16 1014.2 1014.2 0.0
01/08:30pm 25.0 24.9 20.7 77 2.8 ESE 22 32 12 17 1013.7 - 0.0
01/08:00pm 24.8 24.5 20.3 76 2.9 ESE 22 32 12 17 1013.4 - 0.0
01/07:30pm 24.9 24.0 19.9 74 3.2 ESE 24 33 13 18 1013.1 - 0.0
01/07:00pm 25.1 25.2 20.4 75 3.1 ESE 20 28 11 15 1012.8 - 0.0
01/06:30pm 25.5 25.8 20.3 73 3.4 ESE 19 24 10 13 1012.4 - 0.0
01/06:00pm 25.9 25.3 19.8 69 4.0 ESE 22 32 12 17 1012.2 1012.2 0.0
01/05:30pm 26.6 25.8 20.0 67 4.3 ESE 24 32 13 17 1011.9 - 0.0
01/05:00pm 26.9 26.3 19.8 65 4.6 ESE 22 32 12 17 1011.9 - 0.0
01/04:30pm 26.8 25.7 20.2 67 4.3 E 26 33 14 18 1011.8 - 0.0
01/04:00pm 27.2 25.5 19.8 64 4.8 E 28 37 15 20 1011.8 - 0.0
01/03:30pm 27.2 25.3 19.3 62 5.1 E 28 41 15 22 1011.9 - 0.0
01/03:00pm 27.6 25.1 18.9 59 5.6 E 30 39 16 21 1012.3 1012.3 0.0
01/02:30pm 28.1 26.9 19.3 58 5.7 E 24 33 13 18 1012.5 - 0.0
01/02:00pm 27.8 26.1 19.8 61 5.2 E 28 35 15 19 1012.9 - 0.0
01/01:30pm 28.1 26.5 19.3 58 5.7 E 26 37 14 20 1013.4 - 0.0
01/01:00pm 27.9 26.4 19.4 60 5.5 E 26 33 14 18 1013.8 - 0.0
01/12:30pm 27.5 25.8 19.0 59 5.5 E 26 35 14 19 1014.3 - 0.0
01/12:00pm 27.9 26.6 19.1 58 5.7 E 24 30 13 16 1014.7 1014.7 0.0
01/11:30am 27.9 26.9 19.7 61 5.3 E 24 32 13 17 1015.2 - 0.0
01/11:00am 27.6 27.0 20.4 65 4.7 E 24 28 13 15 1015.5 - 0.0
01/10:30am 26.8 26.4 19.4 64 4.8 E 20 28 11 15 1015.8 - 0.0
01/10:00am 27.2 27.2 19.8 64 4.8 E 19 26 10 14 1016.0 - 0.0
01/09:30am 26.3 27.5 20.6 71 3.7 ESE 15 20 8 11 1016.0 - 0.0
01/09:00am 26.0 26.9 20.1 70 3.8 E 15 20 8 11 1015.9 1015.9 0.0
01/08:30am 24.9 27.0 21.0 79 2.6 ESE 11 15 6 8 1015.6 - 0.0
01/08:00am 23.7 27.0 21.8 89 1.3 SE 7 11 4 6 1015.4 - 0.0
01/07:30am 23.0 26.5 22.2 95 0.5 SE 7 9 4 5 1015.1 - 0.0
01/07:00am 21.4 25.4 20.6 95 0.5 CALM 0 0 0 0 1014.6 - 0.0
01/06:30am 21.0 24.9 20.3 96 0.4 CALM 0 0 0 0 1014.3 - 0.0
01/06:00am 20.2 22.5 19.4 95 0.5 S 6 7 3 4 1013.9 1013.9 0.0
01/05:30am 19.6 22.6 18.4 93 0.7 CALM 0 0 0 0 1013.6 - 0.0
01/05:00am 19.8 21.7 18.6 93 0.7 S 6 7 3 4 1013.6 - 0.0
01/04:30am 19.6 22.5 18.3 92 0.8 CALM 0 0 0 0 1013.5 - 0.0
01/04:00am 19.7 21.5 18.4 92 0.8 SSE 6 6 3 3 1013.3 - 0.0
01/03:30am 20.1 23.0 18.2 89 1.2 CALM 0 0 0 0 1013.5 - 0.0
01/03:00am 20.5 22.4 18.6 89 1.2 SSE 6 7 3 4 1013.6 1013.6 0.0
01/02:30am 22.0 24.8 20.8 93 0.8 SE 7 9 4 5 1013.6 - 0.0
01/02:00am 22.1 25.1 20.9 93 0.8 SSE 6 7 3 4 1014.0 - 0.0
01/01:30am 21.6 24.3 20.2 92 0.9 SSE 6 7 3 4 1014.4 - 0.0
01/01:00am 21.3 23.8 19.9 92 0.9 SSE 6 9 3 5 1014.6 - 0.0
01/12:30am 21.0 24.5 19.5 91 1.0 CALM 0 0 0 0 1015.0 - 0.0
01/12:00am 21.0 24.3 19.1 89 1.2 CALM 0 0 0 0 1015.1 1015.1 0.0
 
Date/Time
EST
Temp
°C
App
Temp
°C
Dew
Point
Rel
Hum
%
Delta-T
°C
Wind Press
QNH
hPa
Press
MSL
hPa
Rain
since 9 am
mm
Dir
 
Spd
km/h
Gust
km/h
Spd
kts
Gust
kts
31/11:30pm 21.6 25.1 19.5 88 1.3 CALM 0 0 0 0 1015.2 - 0.0
31/11:00pm 22.4 26.0 19.8 85 1.7 CALM 0 4 0 2 1015.0 - 0.0
31/10:30pm 23.4 26.1 20.7 85 1.8 SE 7 9 4 5 1014.8 - 0.0
31/10:00pm 23.7 26.5 20.8 84 1.9 SE 7 11 4 6 1014.7 - 0.0
31/09:30pm 23.9 26.3 20.8 83 2.0 SE 9 13 5 7 1014.6 - 0.0
31/09:00pm 24.2 26.2 20.7 81 2.3 ESE 11 15 6 8 1014.4 1014.4 0.0
31/08:30pm 24.4 26.1 20.9 81 2.3 ESE 13 17 7 9 1014.1 - 0.0
31/08:00pm 24.5 26.4 20.6 79 2.5 ESE 11 15 6 8 1013.9 - 0.0
31/07:30pm 24.6 25.3 20.5 78 2.7 E 17 22 9 12 1013.4 - 0.0
31/07:00pm 24.7 24.8 20.0 75 3.0 E 19 26 10 14 1013.0 - 0.0
31/06:30pm 25.1 24.8 20.4 75 3.1 E 22 28 12 15 1012.7 - 0.0
31/06:00pm 25.5 24.7 20.1 72 3.5 E 24 32 13 17 1012.5 1012.5 0.0
31/05:30pm 26.1 25.5 20.4 71 3.7 E 24 33 13 18 1012.4 - 0.0
31/05:00pm 26.5 25.9 20.6 70 3.9 E 24 32 13 17 1012.3 - 0.0
31/04:30pm 26.8 25.8 20.4 68 4.2 E 26 33 14 18 1012.2 - 0.0
31/04:00pm 27.1 26.4 20.2 66 4.5 E 24 35 13 19 1012.2 - 0.0
31/03:30pm 27.4 26.7 20.2 65 4.7 ENE 24 30 13 16 1012.3 - 0.0
31/03:00pm 27.6 27.0 19.7 62 5.1 E 22 32 12 17 1012.6 1012.6 0.0
31/02:30pm 28.2 28.0 19.7 60 5.5 ENE 20 30 11 16 1013.1 - 0.0
31/02:00pm 28.1 27.7 18.8 57 6.0 E 19 26 10 14 1013.5 - 0.0
31/01:30pm 28.3 28.7 19.8 60 5.5 E 17 24 9 13 1013.8 - 0.0
31/01:00pm 28.0 28.3 19.5 60 5.5 E 17 22 9 12 1014.1 - 0.0
31/12:30pm 28.0 28.3 19.5 60 5.5 E 17 26 9 14 1014.5 - 0.0
31/12:00pm 27.7 28.3 20.3 64 4.9 ENE 17 20 9 11 1014.8 1014.8 0.0
31/11:30am 27.4 27.7 19.7 63 5.0 ENE 17 24 9 13 1015.2 - 0.0
31/11:00am 27.8 27.6 19.3 60 5.5 SSE 19 26 10 14 1015.7 - 0.0
31/10:30am 27.6 27.1 18.6 58 5.8 ESE 19 24 10 13 1015.9 - 0.0
31/10:00am 27.1 27.6 19.2 62 5.1 SE 15 22 8 12 1016.1 - 0.0
31/09:30am 26.6 26.9 18.7 62 5.0 SE 15 24 8 13 1016.1 - 0.0
31/09:00am 26.2 26.5 19.6 67 4.3 SE 17 20 9 11 1016.0 1016.0 0.0
31/08:30am 25.7 26.5 19.8 70 3.8 SSE 15 20 8 11 1015.8 - 0.0
31/08:00am 24.6 26.5 20.5 78 2.7 SSE 11 15 6 8 1015.6 - 0.0
31/07:30am 24.0 26.2 21.1 84 1.9 SSE 11 15 6 8 1015.3 - 0.0
31/07:00am 23.3 26.5 21.6 90 1.1 SSE 7 9 4 5 1014.9 - 0.0
31/06:30am 22.9 26.0 21.4 91 1.0 SSE 7 11 4 6 1014.4 - 0.0
31/06:00am 22.7 25.9 21.3 92 0.9 S 6 9 3 5 1014.2 1014.2 0.0
31/05:30am 22.2 25.0 20.5 90 1.1 S 6 9 3 5 1013.9 - 0.0
31/05:00am 22.6 25.4 20.9 90 1.1 S 7 11 4 6 1013.9 - 0.0
31/04:30am 23.1 25.7 21.2 89 1.2 S 9 9 5 5 1013.8 - 0.0
31/04:28am 23.1 26.1 21.2 89 1.2 S 7 9 4 5 1013.8 - 0.0
31/04:15am 23.3 26.6 21.4 89 1.3 SSE 6 13 3 7 1013.8 - 0.0
31/04:00am 22.9 25.9 20.8 88 1.4 SE 6 7 3 4 1013.8 - 0.0
31/03:47am 23.3 26.3 21.2 88 1.4 S 7 7 4 4 1013.9 - 0.0
31/03:30am 23.4 26.4 21.3 88 1.4 SSE 7 9 4 5 1013.9 - 0.0
31/03:00am 23.4 26.3 21.1 87 1.5 S 7 9 4 5 1013.9 1013.9 0.0
31/02:30am 23.6 26.6 21.3 87 1.5 SE 7 9 4 5 1014.0 - 0.0
31/02:28am 23.6 26.6 21.3 87 1.5 SSE 7 9 4 5 1014.0 - 0.0
31/02:25am 23.6 26.6 21.3 87 1.5 SSE 7 9 4 5 1014.0 - 0.0
31/02:00am 23.6 26.3 21.3 87 1.5 SSE 9 13 5 7 1014.2 - 0.0
31/01:55am 23.6 26.3 21.3 87 1.5 SSE 9 13 5 7 1014.3 - 0.0
31/01:30am 23.7 26.0 21.4 87 1.5 SSE 11 13 6 7 1014.5 - 0.0
31/01:00am 23.9 26.6 21.4 86 1.6 SE 9 13 5 7 1014.8 - 0.0
31/12:30am 24.0 26.8 21.5 86 1.7 SSE 9 13 5 7 1015.1 - 0.0
31/12:16am 24.0 26.4 21.5 86 1.7 S 11 15 6 8 1015.1 - 0.0
31/12:00am 24.1 26.5 21.6 86 1.7 SSE 11 13 6 7 1015.2 1015.2 0.0
 
Date/Time
EST
Temp
°C
App
Temp
°C
Dew
Point
Rel
Hum
%
Delta-T
°C
Wind Press
QNH
hPa
Press
MSL
hPa
Rain
since 9 am
mm
Dir
 
Spd
km/h
Gust
km/h
Spd
kts
Gust
kts
30/11:30pm 23.9 26.6 21.4 86 1.6 SSE 9 13 5 7 1015.4 - 0.0
30/11:00pm 24.1 26.0 21.4 85 1.8 SSE 13 17 7 9 1015.3 - 0.0
30/10:30pm 24.3 26.1 21.2 83 2.0 SSE 13 17 7 9 1015.3 - 0.0
30/10:20pm 24.4 26.7 21.3 83 2.0 SSE 11 19 6 10 1015.3 - 0.0
30/10:00pm 24.6 26.5 21.3 82 2.2 SSE 13 17 7 9 1015.2 - 0.0
30/09:30pm 24.8 25.4 21.1 80 2.4 ESE 19 26 10 14 1015.1 - 0.0
30/09:00pm 24.8 25.6 21.3 81 2.3 ESE 19 24 10 13 1014.9 1014.9 0.0
30/08:54pm 24.8 25.7 21.5 82 2.2 ESE 19 28 10 15 1014.9 - 0.0
30/08:30pm 24.6 25.2 21.3 82 2.2 ESE 20 30 11 16 1014.4 - 0.0
30/08:00pm 24.6 24.8 21.3 82 2.2 E 22 28 12 15 1014.0 - 0.0
30/07:30pm 24.8 25.7 21.5 82 2.2 E 19 22 10 12 1013.9 - 0.0
30/07:00pm 25.0 25.8 21.3 80 2.4 ESE 19 26 10 14 1013.6 - 0.0
30/06:30pm 25.2 25.7 21.1 78 2.7 E 20 30 11 16 1013.3 - 0.0
30/06:00pm 25.8 26.3 21.2 76 3.0 E 20 30 11 16 1013.2 1013.2 0.0
30/05:30pm 26.2 25.7 21.4 75 3.2 E 26 32 14 17 1013.0 - 0.0
30/05:00pm 26.9 27.1 21.4 72 3.7 E 22 30 12 16 1012.9 - 0.0
30/04:30pm 27.0 26.8 21.3 71 3.8 E 24 35 13 19 1012.8 - 0.0
30/04:00pm 27.3 27.0 21.1 69 4.1 E 24 33 13 18 1012.8 - 0.0
30/03:30pm 28.0 27.3 21.1 66 4.6 E 26 35 14 19 1012.8 - 0.0
30/03:00pm 27.4 26.5 20.7 67 4.4 E 26 33 14 18 1013.1 1013.1 0.0
30/02:30pm 28.0 26.8 20.0 61 5.2 E 26 35 14 19 1013.4 - 0.0
30/02:00pm 28.3 27.7 21.3 65 4.7 E 26 33 14 18 1013.7 - 0.0
30/01:30pm 28.4 27.0 19.6 59 5.7 E 26 35 14 19 1014.0 - 0.0
30/01:00pm 28.2 27.3 20.7 63 5.0 E 26 33 14 18 1014.4 - 0.0
30/12:30pm 28.6 27.9 19.5 58 5.9 E 22 30 12 16 1014.9 - 0.0
30/12:00pm 28.2 28.0 20.5 63 5.1 E 22 32 12 17 1015.2 1015.2 0.0
30/11:30am 27.3 27.3 20.1 64 4.7 E 20 30 11 16 1015.6 - 0.0
30/11:00am 27.4 26.9 20.7 67 4.4 E 24 32 13 17 1016.2 - 0.0
30/10:30am 27.4 27.0 20.2 65 4.7 ESE 22 28 12 15 1016.5 - 0.0
30/10:00am 26.9 27.2 20.7 69 4.1 ESE 20 30 11 16 1016.5 - 0.0
30/09:30am 26.6 27.7 20.4 69 4.1 ESE 15 26 8 14 1016.5 - 0.0
30/09:00am 25.8 26.1 20.4 72 3.5 SE 19 28 10 15 1016.2 1016.2 0.0
30/08:30am 25.2 26.1 20.9 77 2.8 SE 17 24 9 13 1016.2 - 0.0

Other Formats:

Comma delimited format used in spreadsheet applications
http://www.bom.gov.au/fwo/IDQ60801/IDQ60801.94174.axf

JavaScript Object Notation format (JSON) in row-major order
http://www.bom.gov.au/fwo/IDQ60801/IDQ60801.94174.json